createdAt,value
2022-08-16T00:03:02.489Z,25.40
2022-08-16T00:06:10.094Z,25.40
2022-08-16T00:09:17.901Z,25.40
2022-08-16T00:12:11.963Z,25.40
2022-08-16T00:15:50.882Z,25.40
2022-08-16T00:18:40.078Z,25.40
2022-08-16T00:21:29.191Z,25.40
2022-08-16T00:24:31.203Z,25.40
2022-08-16T00:27:21.039Z,25.40
2022-08-16T00:30:19.373Z,25.40
2022-08-16T00:33:07.424Z,25.30
2022-08-16T00:35:56.385Z,25.30
2022-08-16T00:38:44.178Z,25.30
2022-08-16T00:41:33.681Z,25.30
2022-08-16T00:44:31.893Z,25.30
2022-08-16T00:47:49.465Z,25.30
2022-08-16T00:50:56.784Z,25.30
2022-08-16T00:53:54.191Z,25.20
2022-08-16T00:57:00.142Z,25.30
2022-08-16T01:00:08.589Z,25.20
2022-08-16T01:03:16.730Z,25.20
2022-08-16T01:06:40.887Z,25.30
2022-08-16T01:09:50.901Z,25.30
2022-08-16T01:12:52.669Z,25.20
2022-08-16T01:16:02.909Z,25.20
2022-08-16T01:19:13.100Z,25.20
2022-08-16T01:22:50.244Z,25.20
2022-08-16T01:25:36.236Z,25.20
2022-08-16T01:28:45.293Z,25.20
2022-08-16T01:31:33.590Z,25.20
2022-08-16T01:34:56.751Z,25.20
2022-08-16T01:38:19.337Z,25.10
2022-08-16T01:41:29.978Z,25.10
2022-08-16T01:44:38.488Z,25.10
2022-08-16T01:47:49.573Z,25.10
2022-08-16T01:51:08.857Z,25.10
2022-08-16T01:54:10.528Z,25.10
2022-08-16T01:57:31.500Z,25.10
2022-08-16T02:00:38.528Z,25.10
2022-08-16T02:03:50.565Z,25.10
2022-08-16T02:06:46.824Z,25.10
2022-08-16T02:09:59.688Z,25.10
2022-08-16T02:13:20.149Z,25.10
2022-08-16T02:16:35.306Z,25.10
2022-08-16T02:19:59.481Z,25.10
2022-08-16T02:23:07.789Z,25.10
2022-08-16T02:26:16.949Z,25.00
2022-08-16T02:29:31.866Z,25.00
2022-08-16T02:32:50.098Z,25.00
2022-08-16T02:36:00.296Z,25.00
2022-08-16T02:39:07.040Z,25.00
2022-08-16T02:42:14.427Z,25.00
2022-08-16T02:45:28.244Z,25.00
2022-08-16T02:48:38.553Z,25.00
2022-08-16T02:51:45.573Z,24.90
2022-08-16T02:54:55.377Z,25.00
2022-08-16T02:58:05.342Z,25.00
2022-08-16T03:01:24.939Z,25.00
2022-08-16T03:04:50.786Z,25.00
2022-08-16T03:08:01.477Z,25.00
2022-08-16T03:11:17.997Z,24.90
2022-08-16T03:14:29.185Z,25.00
2022-08-16T03:17:50.780Z,24.90
2022-08-16T03:21:01.041Z,24.90
2022-08-16T03:23:50.110Z,24.90
2022-08-16T03:26:59.426Z,24.90
2022-08-16T03:29:56.850Z,24.90
2022-08-16T03:33:07.574Z,24.90
2022-08-16T03:36:30.247Z,24.90
2022-08-16T03:39:20.294Z,24.90
2022-08-16T03:42:28.497Z,24.90
2022-08-16T03:45:37.411Z,24.90
2022-08-16T03:48:40.594Z,24.90
2022-08-16T03:51:38.096Z,24.90
2022-08-16T03:54:37.668Z,24.90
2022-08-16T03:57:44.914Z,24.90
2022-08-16T04:00:42.278Z,24.90
2022-08-16T04:03:37.101Z,24.90
2022-08-16T04:06:25.174Z,24.90
2022-08-16T04:09:15.275Z,24.80
2022-08-16T04:12:04.142Z,24.80
2022-08-16T04:15:02.476Z,24.80
2022-08-16T04:17:54.850Z,24.80
2022-08-16T04:20:44.962Z,24.80
2022-08-16T04:23:36.509Z,24.80
2022-08-16T04:26:25.483Z,24.80
2022-08-16T04:29:46.212Z,24.80
2022-08-16T04:32:55.688Z,24.80
2022-08-16T04:35:49.597Z,24.80
2022-08-16T04:38:56.745Z,24.80
2022-08-16T04:41:57.650Z,24.80
2022-08-16T04:45:06.913Z,24.80
2022-08-16T04:48:21.896Z,24.70
2022-08-16T04:51:41.514Z,24.70
2022-08-16T04:54:33.501Z,24.70
2022-08-16T04:57:42.146Z,24.70
2022-08-16T05:00:49.747Z,24.70
2022-08-16T05:03:59.559Z,24.70
2022-08-16T05:06:51.347Z,24.70
2022-08-16T05:09:49.379Z,24.70
2022-08-16T05:12:38.331Z,24.70
2022-08-16T05:15:33.060Z,24.70
2022-08-16T05:18:26.911Z,24.70
2022-08-16T05:21:17.000Z,24.70
2022-08-16T05:24:14.237Z,24.70
2022-08-16T05:27:13.785Z,24.70
2022-08-16T05:30:33.945Z,24.70
2022-08-16T05:33:16.632Z,24.70
2022-08-16T05:36:14.230Z,24.70
2022-08-16T05:39:22.358Z,24.70
2022-08-16T05:42:35.671Z,24.70
2022-08-16T05:45:43.284Z,24.70
2022-08-16T05:48:54.928Z,24.70
2022-08-16T05:51:45.737Z,24.70
2022-08-16T05:55:01.070Z,24.70
2022-08-16T05:58:20.205Z,24.70
2022-08-16T06:01:18.690Z,24.70
2022-08-16T06:04:35.514Z,24.70
2022-08-16T06:07:38.533Z,24.70
2022-08-16T06:10:36.131Z,24.70
2022-08-16T06:13:26.110Z,24.70
2022-08-16T06:16:39.871Z,24.70
2022-08-16T06:19:28.031Z,24.70
2022-08-16T06:22:39.111Z,24.70
2022-08-16T06:25:36.320Z,24.70
2022-08-16T06:28:36.358Z,24.70
2022-08-16T06:31:29.064Z,24.70
2022-08-16T06:34:55.135Z,24.70
2022-08-16T06:37:37.634Z,24.70
2022-08-16T06:40:33.621Z,24.70
2022-08-16T06:43:22.082Z,24.70
2022-08-16T06:46:42.026Z,24.70
2022-08-16T06:49:57.273Z,24.80
2022-08-16T06:53:08.891Z,24.80
2022-08-16T06:56:14.805Z,24.80
2022-08-16T06:59:52.483Z,24.90
2022-08-16T07:03:27.769Z,24.90
2022-08-16T07:06:35.009Z,24.90
2022-08-16T07:09:49.662Z,24.90
2022-08-16T07:13:03.443Z,24.90
2022-08-16T07:16:15.384Z,25.00
2022-08-16T07:20:01.867Z,25.00
2022-08-16T07:22:58.828Z,25.00
2022-08-16T07:26:25.263Z,25.10
2022-08-16T07:29:17.614Z,25.10
2022-08-16T07:32:29.722Z,25.10
2022-08-16T07:35:44.403Z,25.10
2022-08-16T07:38:53.590Z,25.10
2022-08-16T07:42:01.610Z,25.10
2022-08-16T07:45:13.604Z,25.20
2022-08-16T07:48:11.722Z,25.20
2022-08-16T07:51:09.099Z,25.20
2022-08-16T07:54:09.137Z,25.20
2022-08-16T07:56:59.678Z,25.20
2022-08-16T07:59:50.788Z,25.20
2022-08-16T08:02:40.849Z,25.20
2022-08-16T08:05:37.411Z,25.30
2022-08-16T08:08:51.354Z,25.30
2022-08-16T08:11:37.497Z,25.30
2022-08-16T08:14:30.377Z,25.30
2022-08-16T08:17:21.002Z,25.30
2022-08-16T08:20:10.166Z,25.40
2022-08-16T08:23:00.633Z,25.40
2022-08-16T08:25:55.092Z,25.40
2022-08-16T08:28:47.325Z,25.40
2022-08-16T08:31:36.941Z,25.40
2022-08-16T08:34:25.069Z,25.50
2022-08-16T08:37:14.012Z,25.50
2022-08-16T08:40:05.994Z,25.50
2022-08-16T08:43:18.307Z,25.50
2022-08-16T08:46:36.374Z,25.60
2022-08-16T08:49:50.729Z,25.60
2022-08-16T08:53:04.906Z,25.60
2022-08-16T08:56:23.448Z,25.60
2022-08-16T08:59:40.618Z,25.60
2022-08-16T09:02:52.184Z,25.60
2022-08-16T09:06:01.405Z,25.60
2022-08-16T09:09:17.178Z,25.60
2022-08-16T09:12:31.260Z,25.60
2022-08-16T09:15:51.745Z,25.60
2022-08-16T09:19:04.022Z,25.60
2022-08-16T09:22:20.963Z,25.70
2022-08-16T09:25:34.292Z,25.60
2022-08-16T09:29:17.119Z,25.70
2022-08-16T09:32:28.948Z,25.70
2022-08-16T09:35:39.391Z,25.70
2022-08-16T09:38:51.135Z,25.70
2022-08-16T09:42:07.941Z,25.70
2022-08-16T09:45:18.869Z,25.70
2022-08-16T09:48:44.260Z,25.70
2022-08-16T09:51:59.195Z,25.70
2022-08-16T09:55:08.179Z,25.80
2022-08-16T09:58:40.528Z,25.80
2022-08-16T10:01:48.054Z,25.90
2022-08-16T10:04:59.582Z,25.90
2022-08-16T10:08:26.456Z,25.90
2022-08-16T10:11:52.679Z,26.00
2022-08-16T10:15:01.496Z,26.00
2022-08-16T10:19:00.188Z,26.00
2022-08-16T10:21:41.868Z,26.00
2022-08-16T10:24:59.339Z,26.00
2022-08-16T10:28:28.075Z,26.00
2022-08-16T10:31:44.265Z,26.00
2022-08-16T10:34:54.212Z,26.00
2022-08-16T10:38:06.755Z,26.00
2022-08-16T10:41:20.073Z,26.10
2022-08-16T10:44:31.547Z,26.10
2022-08-16T10:47:40.770Z,26.10
2022-08-16T10:50:51.388Z,26.10
2022-08-16T10:54:01.196Z,26.10
2022-08-16T10:57:12.219Z,26.10
2022-08-16T11:00:21.168Z,26.10
2022-08-16T11:03:42.459Z,26.10
2022-08-16T11:07:08.653Z,26.10
2022-08-16T11:14:11.050Z,26.20
2022-08-16T11:17:19.629Z,26.10
2022-08-16T11:20:48.954Z,26.20
2022-08-16T11:23:58.046Z,26.10
2022-08-16T11:27:32.720Z,26.20
2022-08-16T11:30:39.356Z,26.20
2022-08-16T11:33:55.330Z,26.20
2022-08-16T11:37:03.412Z,26.20
2022-08-16T11:40:13.784Z,26.20
2022-08-16T11:43:26.556Z,26.20
2022-08-16T11:46:44.879Z,26.20
2022-08-16T11:49:54.095Z,26.20
2022-08-16T11:53:03.862Z,26.30
2022-08-16T11:56:11.971Z,26.30
2022-08-16T11:59:25.390Z,26.30
2022-08-16T12:02:36.470Z,26.20
2022-08-16T12:05:45.388Z,26.30
2022-08-16T12:08:55.506Z,26.30
2022-08-16T12:12:03.967Z,26.30
2022-08-16T12:15:16.010Z,26.30
2022-08-16T12:18:24.608Z,26.30
2022-08-16T12:21:57.847Z,26.30
2022-08-16T12:25:01.182Z,26.30
2022-08-16T12:28:09.506Z,26.30
2022-08-16T12:31:19.285Z,26.30
2022-08-16T12:34:28.816Z,26.30
2022-08-16T12:37:37.416Z,26.30
2022-08-16T12:40:50.832Z,26.30
2022-08-16T12:44:04.400Z,26.30
2022-08-16T12:47:31.470Z,26.30
2022-08-16T12:50:39.887Z,26.40
2022-08-16T12:53:47.947Z,26.40
2022-08-16T12:56:57.797Z,26.40
2022-08-16T13:00:08.089Z,26.40
2022-08-16T13:03:17.547Z,26.40
2022-08-16T13:06:32.084Z,26.40
2022-08-16T13:09:51.771Z,26.40
2022-08-16T13:13:02.314Z,26.40
2022-08-16T13:16:20.495Z,26.40
2022-08-16T13:19:55.998Z,26.40
2022-08-16T13:23:00.450Z,26.40
2022-08-16T13:26:12.744Z,26.50
2022-08-16T13:29:26.075Z,26.50
2022-08-16T13:32:48.942Z,26.50
2022-08-16T13:36:01.789Z,26.50
2022-08-16T13:39:14.440Z,26.50
2022-08-16T13:42:22.904Z,26.50
2022-08-16T13:45:36.170Z,26.50
2022-08-16T13:48:45.116Z,26.60
2022-08-16T13:51:54.715Z,26.60
2022-08-16T13:55:03.003Z,26.60
2022-08-16T13:58:37.265Z,26.60
2022-08-16T14:01:40.006Z,26.60
2022-08-16T14:04:49.176Z,26.60
2022-08-16T14:08:15.077Z,26.60
2022-08-16T14:11:23.502Z,26.70
2022-08-16T14:14:32.057Z,26.70
2022-08-16T14:18:14.879Z,26.70
2022-08-16T14:21:08.291Z,26.80
2022-08-16T14:24:29.736Z,26.80
2022-08-16T14:27:39.093Z,26.80
2022-08-16T14:30:50.567Z,26.80
2022-08-16T14:33:59.794Z,26.80
2022-08-16T14:37:08.779Z,26.80
2022-08-16T14:40:20.586Z,26.80
2022-08-16T14:43:29.867Z,26.80
2022-08-16T14:46:38.901Z,26.80
2022-08-16T14:49:47.143Z,26.90
2022-08-16T14:52:57.876Z,26.80
2022-08-16T14:56:07.798Z,26.90
2022-08-16T14:59:25.957Z,26.90
2022-08-16T15:02:35.199Z,26.90
2022-08-16T15:05:23.216Z,26.90
2022-08-16T15:08:11.180Z,26.90
2022-08-16T15:10:58.736Z,26.90
2022-08-16T15:14:07.073Z,26.90
2022-08-16T15:16:54.932Z,26.90
2022-08-16T15:19:55.855Z,26.90
2022-08-16T15:22:44.996Z,26.90
2022-08-16T15:25:34.496Z,27.00
2022-08-16T15:28:31.839Z,27.00
2022-08-16T15:31:21.382Z,26.90
2022-08-16T15:34:09.244Z,27.00
2022-08-16T15:37:06.951Z,27.00
2022-08-16T15:39:56.085Z,27.00
2022-08-16T15:42:47.172Z,27.00
2022-08-16T15:45:59.029Z,27.00
2022-08-16T15:48:48.449Z,27.00
2022-08-16T15:51:39.540Z,27.00
2022-08-16T15:54:30.888Z,27.00
2022-08-16T15:57:21.526Z,27.00
2022-08-16T16:00:15.254Z,27.00
2022-08-16T16:03:04.807Z,27.00
2022-08-16T16:06:00.094Z,27.10
2022-08-16T16:08:49.307Z,27.10
2022-08-16T16:11:39.032Z,27.10
2022-08-16T16:14:29.103Z,27.10
2022-08-16T16:17:37.823Z,27.10
2022-08-16T16:20:47.522Z,27.10
2022-08-16T16:23:58.935Z,27.10
2022-08-16T16:27:10.842Z,27.10
2022-08-16T16:30:37.397Z,27.10
2022-08-16T16:33:50.219Z,27.10
2022-08-16T16:36:58.387Z,27.10
2022-08-16T16:40:09.597Z,27.20
2022-08-16T16:43:21.010Z,27.20
2022-08-16T16:46:43.076Z,27.20
2022-08-16T16:49:51.686Z,27.20
2022-08-16T16:53:02.062Z,27.20
2022-08-16T16:56:32.246Z,27.20
2022-08-16T16:59:43.543Z,27.20
2022-08-16T17:02:54.189Z,27.20
2022-08-16T17:06:03.250Z,27.20
2022-08-16T17:09:17.568Z,27.10
2022-08-16T17:12:46.941Z,27.20
2022-08-16T17:15:55.259Z,27.10
2022-08-16T17:19:17.131Z,27.20
2022-08-16T17:22:32.708Z,27.20
2022-08-16T17:25:41.874Z,27.20
2022-08-16T17:28:59.147Z,27.20
2022-08-16T17:32:33.949Z,27.20
2022-08-16T17:35:43.650Z,27.20
2022-08-16T17:38:51.837Z,27.20
2022-08-16T17:42:01.842Z,27.20
2022-08-16T17:45:11.765Z,27.20
2022-08-16T17:48:20.086Z,27.10
2022-08-16T17:51:28.515Z,27.10
2022-08-16T17:54:36.497Z,27.10
2022-08-16T17:57:44.734Z,27.10
2022-08-16T18:00:59.667Z,27.10
2022-08-16T18:04:09.982Z,27.10
2022-08-16T18:07:18.057Z,27.10
2022-08-16T18:10:33.532Z,27.10
2022-08-16T18:13:44.534Z,27.10
2022-08-16T18:16:54.643Z,27.00
2022-08-16T18:20:02.423Z,27.00
2022-08-16T18:23:10.264Z,27.00
2022-08-16T18:26:21.710Z,27.00
2022-08-16T18:29:29.676Z,26.90
2022-08-16T18:32:43.549Z,26.90
2022-08-16T18:35:57.018Z,26.90
2022-08-16T18:39:06.158Z,26.90
2022-08-16T18:42:15.186Z,26.90
2022-08-16T18:45:23.174Z,26.90
2022-08-16T18:48:32.646Z,26.80
2022-08-16T18:51:42.513Z,26.80
2022-08-16T18:55:01.883Z,26.80
2022-08-16T18:58:12.666Z,26.80
2022-08-16T19:01:21.106Z,26.80
2022-08-16T19:04:55.938Z,26.70
2022-08-16T19:07:58.694Z,26.70
2022-08-16T19:11:07.226Z,26.70
2022-08-16T19:14:16.024Z,26.70
2022-08-16T19:17:23.899Z,26.70
2022-08-16T19:20:33.203Z,26.60
2022-08-16T19:23:41.092Z,26.60
2022-08-16T19:26:49.080Z,26.60
2022-08-16T19:29:57.646Z,26.60
2022-08-16T19:33:11.015Z,26.60
2022-08-16T19:36:31.266Z,26.60
2022-08-16T19:39:41.008Z,26.60
2022-08-16T19:42:49.115Z,26.60
2022-08-16T19:45:57.334Z,26.50
2022-08-16T19:49:05.553Z,26.50
2022-08-16T19:52:17.219Z,26.50
2022-08-16T19:55:25.230Z,26.50
2022-08-16T19:58:33.582Z,26.50
2022-08-16T20:01:42.761Z,26.50
2022-08-16T20:04:52.101Z,26.40
2022-08-16T20:08:04.687Z,26.40
2022-08-16T20:11:13.216Z,26.40
2022-08-16T20:14:01.353Z,26.40
2022-08-16T20:16:49.488Z,26.30
2022-08-16T20:19:40.559Z,26.30
2022-08-16T20:22:52.460Z,26.10
2022-08-16T20:25:58.635Z,26.00
2022-08-16T20:28:54.145Z,25.90
2022-08-16T20:31:42.814Z,25.80
2022-08-16T20:34:30.496Z,25.70
2022-08-16T20:37:18.779Z,25.70
2022-08-16T20:40:33.419Z,25.60
2022-08-16T20:43:19.008Z,25.60
2022-08-16T20:46:06.662Z,25.50
2022-08-16T20:48:54.604Z,25.50
2022-08-16T20:51:49.660Z,25.40
2022-08-16T20:54:57.692Z,25.40
2022-08-16T20:58:04.814Z,25.30
2022-08-16T21:01:13.129Z,25.20
2022-08-16T21:04:01.154Z,25.10
2022-08-16T21:06:54.432Z,25.10
2022-08-16T21:09:43.061Z,25.10
2022-08-16T21:12:34.768Z,25.10
2022-08-16T21:15:26.481Z,25.20
2022-08-16T21:18:16.228Z,25.20
2022-08-16T21:21:23.154Z,25.30
2022-08-16T21:24:22.734Z,25.30
2022-08-16T21:27:30.271Z,25.20
2022-08-16T21:30:37.392Z,25.20
2022-08-16T21:33:26.543Z,25.30
2022-08-16T21:36:14.698Z,25.30
2022-08-16T21:39:02.514Z,25.20
2022-08-16T21:41:50.394Z,25.30
2022-08-16T21:44:38.693Z,25.30
2022-08-16T21:47:27.179Z,25.30
2022-08-16T21:50:16.730Z,25.30
2022-08-16T21:53:09.488Z,25.30
2022-08-16T21:56:17.338Z,25.30
2022-08-16T21:59:10.823Z,25.30
2022-08-16T22:02:17.848Z,25.40
2022-08-16T22:05:26.075Z,25.30
2022-08-16T22:08:30.751Z,25.40
2022-08-16T22:11:30.848Z,25.30
2022-08-16T22:14:27.975Z,25.30
2022-08-16T22:17:34.514Z,25.30
2022-08-16T22:20:46.190Z,25.40
2022-08-16T22:23:36.214Z,25.40
2022-08-16T22:26:34.915Z,25.40
2022-08-16T22:29:33.681Z,25.40
2022-08-16T22:32:40.282Z,25.30
2022-08-16T22:35:28.270Z,25.30
2022-08-16T22:38:56.672Z,25.30
2022-08-16T22:41:26.122Z,25.30
2022-08-16T22:44:13.862Z,25.30
2022-08-16T22:47:02.166Z,25.30
2022-08-16T22:49:49.777Z,25.30
2022-08-16T22:52:55.975Z,25.30
2022-08-16T22:55:46.413Z,25.30
2022-08-16T22:58:36.390Z,25.20
2022-08-16T23:01:25.686Z,25.20
2022-08-16T23:04:13.506Z,25.20
2022-08-16T23:07:01.615Z,25.20
2022-08-16T23:10:09.267Z,25.10
2022-08-16T23:13:17.309Z,25.10
2022-08-16T23:16:32.251Z,25.10
2022-08-16T23:19:21.621Z,25.10
2022-08-16T23:22:09.570Z,25.10
2022-08-16T23:24:57.769Z,25.10
2022-08-16T23:27:45.838Z,25.10
2022-08-16T23:30:36.708Z,25.10
2022-08-16T23:33:28.927Z,25.10
2022-08-16T23:36:16.600Z,25.10
2022-08-16T23:39:04.627Z,25.10
2022-08-16T23:41:52.291Z,25.10
2022-08-16T23:44:42.348Z,25.00
2022-08-16T23:47:48.110Z,25.00
2022-08-16T23:50:40.892Z,25.00
2022-08-16T23:53:29.544Z,25.00
2022-08-16T23:56:18.390Z,25.00
2022-08-16T23:59:06.299Z,25.00
